sensor_id;sensor_type;location;lat;lon;timestamp;P1;durP1;ratioP1;P2;durP2;ratioP2
7971;SDS011;4031;49.758;6.120;2022-10-14T00:00:36;15.37;;;9.00;;
7971;SDS011;4031;49.758;6.120;2022-10-14T00:03:01;13.00;;;8.70;;
7971;SDS011;4031;49.758;6.120;2022-10-14T00:05:27;13.40;;;9.00;;
7971;SDS011;4031;49.758;6.120;2022-10-14T00:07:53;16.33;;;10.40;;
7971;SDS011;4031;49.758;6.120;2022-10-14T00:10:19;14.57;;;9.00;;
7971;SDS011;4031;49.758;6.120;2022-10-14T00:12:45;15.80;;;9.60;;
7971;SDS011;4031;49.758;6.120;2022-10-14T00:15:11;14.90;;;9.07;;
7971;SDS011;4031;49.758;6.120;2022-10-14T00:17:37;17.70;;;9.40;;
7971;SDS011;4031;49.758;6.120;2022-10-14T00:20:03;13.83;;;9.77;;
7971;SDS011;4031;49.758;6.120;2022-10-14T00:22:30;12.97;;;8.63;;
7971;SDS011;4031;49.758;6.120;2022-10-14T00:24:56;18.63;;;10.63;;
7971;SDS011;4031;49.758;6.120;2022-10-14T00:27:21;13.53;;;10.27;;
7971;SDS011;4031;49.758;6.120;2022-10-14T00:29:47;16.27;;;10.40;;
7971;SDS011;4031;49.758;6.120;2022-10-14T00:32:13;16.63;;;9.30;;
7971;SDS011;4031;49.758;6.120;2022-10-14T00:34:39;17.27;;;10.50;;
7971;SDS011;4031;49.758;6.120;2022-10-14T00:37:05;11.87;;;9.00;;
7971;SDS011;4031;49.758;6.120;2022-10-14T00:39:30;13.60;;;9.27;;
7971;SDS011;4031;49.758;6.120;2022-10-14T00:41:56;16.20;;;9.30;;
7971;SDS011;4031;49.758;6.120;2022-10-14T00:46:48;13.80;;;8.40;;
7971;SDS011;4031;49.758;6.120;2022-10-14T00:49:16;16.10;;;10.17;;
7971;SDS011;4031;49.758;6.120;2022-10-14T00:51:56;16.77;;;9.80;;
7971;SDS011;4031;49.758;6.120;2022-10-14T00:54:39;16.97;;;9.70;;
7971;SDS011;4031;49.758;6.120;2022-10-14T00:57:09;19.80;;;10.07;;
7971;SDS011;4031;49.758;6.120;2022-10-14T00:59:35;13.93;;;8.40;;
7971;SDS011;4031;49.758;6.120;2022-10-14T01:02:02;19.17;;;10.83;;
7971;SDS011;4031;49.758;6.120;2022-10-14T01:04:28;15.33;;;8.60;;
7971;SDS011;4031;49.758;6.120;2022-10-14T01:07:04;11.40;;;8.10;;
7971;SDS011;4031;49.758;6.120;2022-10-14T01:21:42;14.80;;;8.80;;
7971;SDS011;4031;49.758;6.120;2022-10-14T01:24:15;18.10;;;9.53;;
7971;SDS011;4031;49.758;6.120;2022-10-14T01:38:33;12.13;;;7.83;;
7971;SDS011;4031;49.758;6.120;2022-10-14T01:41:05;14.40;;;8.43;;
7971;SDS011;4031;49.758;6.120;2022-10-14T01:43:46;12.73;;;8.20;;
7971;SDS011;4031;49.758;6.120;2022-10-14T01:46:14;9.70;;;8.30;;
7971;SDS011;4031;49.758;6.120;2022-10-14T01:48:44;11.63;;;7.57;;
7971;SDS011;4031;49.758;6.120;2022-10-14T01:51:18;11.97;;;7.23;;
7971;SDS011;4031;49.758;6.120;2022-10-14T01:53:53;11.40;;;6.67;;
7971;SDS011;4031;49.758;6.120;2022-10-14T01:56:26;11.60;;;7.70;;
7971;SDS011;4031;49.758;6.120;2022-10-14T01:58:54;10.07;;;6.67;;
7971;SDS011;4031;49.758;6.120;2022-10-14T02:01:23;11.50;;;7.70;;
7971;SDS011;4031;49.758;6.120;2022-10-14T02:03:49;11.20;;;7.27;;
7971;SDS011;4031;49.758;6.120;2022-10-14T02:06:27;12.70;;;6.77;;
7971;SDS011;4031;49.758;6.120;2022-10-14T02:09:00;15.60;;;8.00;;
7971;SDS011;4031;49.758;6.120;2022-10-14T02:12:24;10.67;;;7.17;;
7971;SDS011;4031;49.758;6.120;2022-10-14T02:15:15;11.47;;;7.60;;
7971;SDS011;4031;49.758;6.120;2022-10-14T02:17:56;11.53;;;7.77;;
7971;SDS011;4031;49.758;6.120;2022-10-14T02:20:51;11.57;;;7.27;;
7971;SDS011;4031;49.758;6.120;2022-10-14T02:23:41;13.37;;;8.50;;
7971;SDS011;4031;49.758;6.120;2022-10-14T02:26:16;11.50;;;8.27;;
7971;SDS011;4031;49.758;6.120;2022-10-14T02:28:43;14.60;;;8.37;;
7971;SDS011;4031;49.758;6.120;2022-10-14T02:31:11;11.60;;;8.20;;
7971;SDS011;4031;49.758;6.120;2022-10-14T02:33:40;11.23;;;8.40;;
7971;SDS011;4031;49.758;6.120;2022-10-14T02:36:10;11.63;;;7.97;;
7971;SDS011;4031;49.758;6.120;2022-10-14T02:38:39;13.40;;;9.37;;
7971;SDS011;4031;49.758;6.120;2022-10-14T02:41:06;13.07;;;9.13;;
7971;SDS011;4031;49.758;6.120;2022-10-14T02:43:37;14.47;;;9.40;;
7971;SDS011;4031;49.758;6.120;2022-10-14T02:46:02;17.43;;;9.87;;
7971;SDS011;4031;49.758;6.120;2022-10-14T02:48:29;23.00;;;10.80;;
7971;SDS011;4031;49.758;6.120;2022-10-14T02:50:55;11.10;;;6.30;;
7971;SDS011;4031;49.758;6.120;2022-10-14T02:53:21;12.30;;;8.00;;
7971;SDS011;4031;49.758;6.120;2022-10-14T02:55:46;14.90;;;9.47;;
7971;SDS011;4031;49.758;6.120;2022-10-14T02:58:13;11.23;;;7.97;;
7971;SDS011;4031;49.758;6.120;2022-10-14T03:00:39;13.17;;;8.70;;
7971;SDS011;4031;49.758;6.120;2022-10-14T03:03:04;11.67;;;8.63;;
7971;SDS011;4031;49.758;6.120;2022-10-14T03:05:30;18.43;;;9.87;;
7971;SDS011;4031;49.758;6.120;2022-10-14T03:07:56;10.27;;;8.27;;
7971;SDS011;4031;49.758;6.120;2022-10-14T03:10:22;12.97;;;8.33;;
7971;SDS011;4031;49.758;6.120;2022-10-14T03:12:48;15.20;;;9.90;;
7971;SDS011;4031;49.758;6.120;2022-10-14T03:15:13;17.73;;;9.50;;
7971;SDS011;4031;49.758;6.120;2022-10-14T03:17:39;13.87;;;10.67;;
7971;SDS011;4031;49.758;6.120;2022-10-14T03:20:05;14.67;;;10.10;;
7971;SDS011;4031;49.758;6.120;2022-10-14T03:22:31;13.77;;;8.43;;
7971;SDS011;4031;49.758;6.120;2022-10-14T03:24:57;16.90;;;9.30;;
7971;SDS011;4031;49.758;6.120;2022-10-14T03:27:23;15.43;;;10.23;;
7971;SDS011;4031;49.758;6.120;2022-10-14T03:29:49;22.33;;;11.57;;
7971;SDS011;4031;49.758;6.120;2022-10-14T03:32:15;15.90;;;9.80;;
7971;SDS011;4031;49.758;6.120;2022-10-14T03:34:41;20.20;;;12.83;;
7971;SDS011;4031;49.758;6.120;2022-10-14T03:37:07;22.13;;;11.77;;
7971;SDS011;4031;49.758;6.120;2022-10-14T03:39:33;30.77;;;13.43;;
7971;SDS011;4031;49.758;6.120;2022-10-14T03:41:59;18.60;;;12.47;;
7971;SDS011;4031;49.758;6.120;2022-10-14T03:44:24;20.90;;;12.03;;
7971;SDS011;4031;49.758;6.120;2022-10-14T03:46:50;20.17;;;12.43;;
7971;SDS011;4031;49.758;6.120;2022-10-14T03:49:16;22.63;;;12.70;;
7971;SDS011;4031;49.758;6.120;2022-10-14T03:51:42;24.70;;;12.50;;
7971;SDS011;4031;49.758;6.120;2022-10-14T03:54:08;20.30;;;12.43;;
7971;SDS011;4031;49.758;6.120;2022-10-14T03:56:34;16.97;;;9.60;;
7971;SDS011;4031;49.758;6.120;2022-10-14T03:58:59;21.60;;;13.30;;
7971;SDS011;4031;49.758;6.120;2022-10-14T04:01:25;20.63;;;11.80;;
7971;SDS011;4031;49.758;6.120;2022-10-14T04:03:51;24.30;;;12.73;;
7971;SDS011;4031;49.758;6.120;2022-10-14T04:06:17;20.10;;;12.03;;
7971;SDS011;4031;49.758;6.120;2022-10-14T04:08:43;19.13;;;11.50;;
7971;SDS011;4031;49.758;6.120;2022-10-14T04:11:09;22.73;;;12.57;;
7971;SDS011;4031;49.758;6.120;2022-10-14T04:13:34;23.87;;;12.80;;
7971;SDS011;4031;49.758;6.120;2022-10-14T04:16:04;22.70;;;13.53;;
7971;SDS011;4031;49.758;6.120;2022-10-14T04:18:32;21.20;;;13.93;;
7971;SDS011;4031;49.758;6.120;2022-10-14T04:21:02;20.40;;;12.30;;
7971;SDS011;4031;49.758;6.120;2022-10-14T04:23:32;16.90;;;10.83;;
7971;SDS011;4031;49.758;6.120;2022-10-14T04:26:01;16.50;;;10.33;;
7971;SDS011;4031;49.758;6.120;2022-10-14T04:28:31;18.90;;;11.93;;
7971;SDS011;4031;49.758;6.120;2022-10-14T04:30:58;19.30;;;12.23;;
7971;SDS011;4031;49.758;6.120;2022-10-14T04:33:24;15.17;;;9.63;;
7971;SDS011;4031;49.758;6.120;2022-10-14T04:35:55;19.17;;;10.10;;
7971;SDS011;4031;49.758;6.120;2022-10-14T04:38:23;14.37;;;10.17;;
7971;SDS011;4031;49.758;6.120;2022-10-14T04:40:48;17.43;;;10.83;;
7971;SDS011;4031;49.758;6.120;2022-10-14T04:43:14;16.27;;;10.70;;
7971;SDS011;4031;49.758;6.120;2022-10-14T04:45:40;18.50;;;10.60;;
7971;SDS011;4031;49.758;6.120;2022-10-14T04:48:06;17.07;;;11.63;;
7971;SDS011;4031;49.758;6.120;2022-10-14T04:50:32;21.37;;;12.60;;
7971;SDS011;4031;49.758;6.120;2022-10-14T04:52:58;25.80;;;12.67;;
7971;SDS011;4031;49.758;6.120;2022-10-14T04:55:23;21.10;;;12.63;;
7971;SDS011;4031;49.758;6.120;2022-10-14T04:57:49;22.40;;;12.40;;
7971;SDS011;4031;49.758;6.120;2022-10-14T05:00:15;17.90;;;12.50;;
7971;SDS011;4031;49.758;6.120;2022-10-14T05:02:41;21.03;;;12.87;;
7971;SDS011;4031;49.758;6.120;2022-10-14T05:05:06;20.17;;;13.00;;
7971;SDS011;4031;49.758;6.120;2022-10-14T05:07:33;17.50;;;12.13;;
7971;SDS011;4031;49.758;6.120;2022-10-14T05:09:59;21.97;;;13.30;;
7971;SDS011;4031;49.758;6.120;2022-10-14T05:12:26;22.63;;;14.37;;
7971;SDS011;4031;49.758;6.120;2022-10-14T05:14:52;22.60;;;11.73;;
7971;SDS011;4031;49.758;6.120;2022-10-14T05:17:19;26.57;;;14.73;;
7971;SDS011;4031;49.758;6.120;2022-10-14T05:19:45;22.90;;;14.13;;
7971;SDS011;4031;49.758;6.120;2022-10-14T05:22:10;21.97;;;15.23;;
7971;SDS011;4031;49.758;6.120;2022-10-14T05:24:36;28.30;;;14.43;;
7971;SDS011;4031;49.758;6.120;2022-10-14T05:27:02;28.73;;;16.13;;
7971;SDS011;4031;49.758;6.120;2022-10-14T05:29:28;26.10;;;14.57;;
7971;SDS011;4031;49.758;6.120;2022-10-14T05:31:54;32.30;;;17.30;;
7971;SDS011;4031;49.758;6.120;2022-10-14T05:34:19;23.03;;;15.43;;
7971;SDS011;4031;49.758;6.120;2022-10-14T05:36:45;30.63;;;17.80;;
7971;SDS011;4031;49.758;6.120;2022-10-14T05:39:11;28.00;;;16.67;;
7971;SDS011;4031;49.758;6.120;2022-10-14T05:41:37;26.37;;;17.80;;
7971;SDS011;4031;49.758;6.120;2022-10-14T05:44:03;31.33;;;18.57;;
7971;SDS011;4031;49.758;6.120;2022-10-14T05:46:29;29.17;;;17.43;;
7971;SDS011;4031;49.758;6.120;2022-10-14T05:48:56;30.30;;;17.10;;
7971;SDS011;4031;49.758;6.120;2022-10-14T05:51:24;36.03;;;19.57;;
7971;SDS011;4031;49.758;6.120;2022-10-14T05:53:50;28.53;;;17.83;;
7971;SDS011;4031;49.758;6.120;2022-10-14T05:56:16;33.37;;;18.57;;
7971;SDS011;4031;49.758;6.120;2022-10-14T05:58:42;27.30;;;16.20;;
7971;SDS011;4031;49.758;6.120;2022-10-14T06:01:08;28.90;;;16.60;;
7971;SDS011;4031;49.758;6.120;2022-10-14T06:03:36;27.60;;;16.60;;
7971;SDS011;4031;49.758;6.120;2022-10-14T06:06:02;24.90;;;16.00;;
7971;SDS011;4031;49.758;6.120;2022-10-14T06:08:27;23.70;;;14.30;;
7971;SDS011;4031;49.758;6.120;2022-10-14T06:10:53;26.07;;;14.93;;
7971;SDS011;4031;49.758;6.120;2022-10-14T06:13:20;23.40;;;14.87;;
7971;SDS011;4031;49.758;6.120;2022-10-14T06:15:46;24.77;;;13.70;;
7971;SDS011;4031;49.758;6.120;2022-10-14T06:18:12;17.70;;;12.90;;
7971;SDS011;4031;49.758;6.120;2022-10-14T06:20:38;19.73;;;13.43;;
7971;SDS011;4031;49.758;6.120;2022-10-14T06:23:04;27.63;;;12.73;;
7971;SDS011;4031;49.758;6.120;2022-10-14T06:25:30;15.80;;;10.80;;
7971;SDS011;4031;49.758;6.120;2022-10-14T06:28:02;19.07;;;12.27;;
7971;SDS011;4031;49.758;6.120;2022-10-14T06:30:29;19.97;;;13.03;;
7971;SDS011;4031;49.758;6.120;2022-10-14T06:32:56;15.90;;;10.23;;
7971;SDS011;4031;49.758;6.120;2022-10-14T06:35:22;16.90;;;10.80;;
7971;SDS011;4031;49.758;6.120;2022-10-14T06:37:48;19.90;;;12.50;;
7971;SDS011;4031;49.758;6.120;2022-10-14T06:40:13;18.37;;;10.83;;
7971;SDS011;4031;49.758;6.120;2022-10-14T06:42:39;16.00;;;10.90;;
7971;SDS011;4031;49.758;6.120;2022-10-14T06:45:05;17.93;;;10.50;;
7971;SDS011;4031;49.758;6.120;2022-10-14T06:47:31;15.50;;;9.97;;
7971;SDS011;4031;49.758;6.120;2022-10-14T06:49:57;12.93;;;9.10;;
7971;SDS011;4031;49.758;6.120;2022-10-14T06:52:23;14.17;;;8.73;;
7971;SDS011;4031;49.758;6.120;2022-10-14T06:54:49;12.27;;;9.07;;
7971;SDS011;4031;49.758;6.120;2022-10-14T06:57:14;13.10;;;9.80;;
7971;SDS011;4031;49.758;6.120;2022-10-14T06:59:40;13.30;;;9.50;;
7971;SDS011;4031;49.758;6.120;2022-10-14T07:02:07;15.27;;;10.40;;
7971;SDS011;4031;49.758;6.120;2022-10-14T07:04:34;15.67;;;10.30;;
7971;SDS011;4031;49.758;6.120;2022-10-14T07:06:59;14.30;;;9.70;;
7971;SDS011;4031;49.758;6.120;2022-10-14T07:09:26;11.43;;;8.50;;
7971;SDS011;4031;49.758;6.120;2022-10-14T07:11:53;13.70;;;8.57;;
7971;SDS011;4031;49.758;6.120;2022-10-14T07:14:19;12.70;;;8.70;;
7971;SDS011;4031;49.758;6.120;2022-10-14T07:16:44;11.73;;;8.30;;
7971;SDS011;4031;49.758;6.120;2022-10-14T07:19:10;12.00;;;8.50;;
7971;SDS011;4031;49.758;6.120;2022-10-14T07:21:36;10.03;;;7.90;;
7971;SDS011;4031;49.758;6.120;2022-10-14T07:24:02;11.07;;;7.93;;
7971;SDS011;4031;49.758;6.120;2022-10-14T07:26:30;10.40;;;7.40;;
7971;SDS011;4031;49.758;6.120;2022-10-14T07:28:56;9.03;;;7.40;;
7971;SDS011;4031;49.758;6.120;2022-10-14T07:31:22;8.50;;;7.30;;
7971;SDS011;4031;49.758;6.120;2022-10-14T07:33:48;12.13;;;7.10;;
7971;SDS011;4031;49.758;6.120;2022-10-14T07:36:14;11.60;;;7.10;;
7971;SDS011;4031;49.758;6.120;2022-10-14T07:38:42;9.10;;;7.10;;
7971;SDS011;4031;49.758;6.120;2022-10-14T07:41:10;8.37;;;6.20;;
7971;SDS011;4031;49.758;6.120;2022-10-14T07:43:45;8.10;;;6.37;;
7971;SDS011;4031;49.758;6.120;2022-10-14T07:46:14;8.40;;;6.20;;
7971;SDS011;4031;49.758;6.120;2022-10-14T07:48:52;7.73;;;5.83;;
7971;SDS011;4031;49.758;6.120;2022-10-14T07:51:18;7.20;;;5.57;;
7971;SDS011;4031;49.758;6.120;2022-10-14T07:53:44;6.23;;;5.63;;
7971;SDS011;4031;49.758;6.120;2022-10-14T07:56:10;7.30;;;5.67;;
7971;SDS011;4031;49.758;6.120;2022-10-14T07:58:35;5.07;;;4.57;;
7971;SDS011;4031;49.758;6.120;2022-10-14T08:01:01;6.07;;;5.40;;
7971;SDS011;4031;49.758;6.120;2022-10-14T08:03:27;6.00;;;5.07;;
7971;SDS011;4031;49.758;6.120;2022-10-14T08:05:59;5.40;;;4.30;;
7971;SDS011;4031;49.758;6.120;2022-10-14T08:08:27;4.57;;;3.87;;
7971;SDS011;4031;49.758;6.120;2022-10-14T08:11:00;6.00;;;4.33;;
7971;SDS011;4031;49.758;6.120;2022-10-14T08:13:39;3.43;;;3.13;;
7971;SDS011;4031;49.758;6.120;2022-10-14T08:16:13;3.67;;;2.67;;
7971;SDS011;4031;49.758;6.120;2022-10-14T08:18:47;4.13;;;3.20;;
7971;SDS011;4031;49.758;6.120;2022-10-14T08:21:15;2.97;;;2.77;;
7971;SDS011;4031;49.758;6.120;2022-10-14T08:23:42;8.30;;;3.63;;
7971;SDS011;4031;49.758;6.120;2022-10-14T08:26:14;3.13;;;2.83;;
7971;SDS011;4031;49.758;6.120;2022-10-14T08:28:52;2.73;;;2.53;;
7971;SDS011;4031;49.758;6.120;2022-10-14T08:31:18;3.57;;;3.10;;
7971;SDS011;4031;49.758;6.120;2022-10-14T08:33:44;2.97;;;2.70;;
7971;SDS011;4031;49.758;6.120;2022-10-14T08:36:10;2.93;;;2.47;;
7971;SDS011;4031;49.758;6.120;2022-10-14T08:38:37;2.57;;;2.37;;
7971;SDS011;4031;49.758;6.120;2022-10-14T08:46:38;3.73;;;2.77;;
7971;SDS011;4031;49.758;6.120;2022-10-14T08:49:20;3.00;;;2.70;;
7971;SDS011;4031;49.758;6.120;2022-10-14T08:54:37;2.30;;;2.10;;
7971;SDS011;4031;49.758;6.120;2022-10-14T08:57:11;2.30;;;2.10;;
7971;SDS011;4031;49.758;6.120;2022-10-14T08:59:43;2.30;;;2.20;;
7971;SDS011;4031;49.758;6.120;2022-10-14T09:02:13;3.67;;;2.67;;
7971;SDS011;4031;49.758;6.120;2022-10-14T09:04:48;2.47;;;2.20;;
7971;SDS011;4031;49.758;6.120;2022-10-14T09:07:15;3.10;;;2.20;;
7971;SDS011;4031;49.758;6.120;2022-10-14T09:09:44;1.87;;;1.70;;
7971;SDS011;4031;49.758;6.120;2022-10-14T09:12:16;2.43;;;2.23;;
7971;SDS011;4031;49.758;6.120;2022-10-14T09:15:34;2.60;;;2.40;;
7971;SDS011;4031;49.758;6.120;2022-10-14T09:17:49;2.93;;;2.63;;
7971;SDS011;4031;49.758;6.120;2022-10-14T09:20:32;2.30;;;2.10;;
7971;SDS011;4031;49.758;6.120;2022-10-14T09:23:07;2.40;;;2.20;;
7971;SDS011;4031;49.758;6.120;2022-10-14T09:25:44;3.53;;;2.50;;
7971;SDS011;4031;49.758;6.120;2022-10-14T09:28:24;2.60;;;2.40;;
7971;SDS011;4031;49.758;6.120;2022-10-14T09:31:00;2.20;;;2.00;;
7971;SDS011;4031;49.758;6.120;2022-10-14T09:33:26;3.10;;;2.30;;
7971;SDS011;4031;49.758;6.120;2022-10-14T09:35:53;2.80;;;2.60;;
7971;SDS011;4031;49.758;6.120;2022-10-14T09:38:21;2.07;;;1.30;;
7971;SDS011;4031;49.758;6.120;2022-10-14T09:40:49;1.87;;;1.60;;
7971;SDS011;4031;49.758;6.120;2022-10-14T09:43:21;2.20;;;2.00;;
7971;SDS011;4031;49.758;6.120;2022-10-14T09:45:50;2.03;;;1.60;;
7971;SDS011;4031;49.758;6.120;2022-10-14T09:48:30;2.17;;;1.97;;
7971;SDS011;4031;49.758;6.120;2022-10-14T09:50:57;1.73;;;1.60;;
7971;SDS011;4031;49.758;6.120;2022-10-14T09:53:30;4.43;;;1.73;;
7971;SDS011;4031;49.758;6.120;2022-10-14T09:56:02;2.00;;;1.90;;
7971;SDS011;4031;49.758;6.120;2022-10-14T10:01:19;2.40;;;1.77;;
7971;SDS011;4031;49.758;6.120;2022-10-14T10:03:48;1.67;;;1.57;;
7971;SDS011;4031;49.758;6.120;2022-10-14T10:06:16;1.67;;;1.57;;
7971;SDS011;4031;49.758;6.120;2022-10-14T10:19:35;2.37;;;1.40;;
7971;SDS011;4031;49.758;6.120;2022-10-14T10:27:32;1.30;;;1.10;;
7971;SDS011;4031;49.758;6.120;2022-10-14T10:36:10;1.23;;;1.10;;
7971;SDS011;4031;49.758;6.120;2022-10-14T10:38:58;0.80;;;0.80;;
7971;SDS011;4031;49.758;6.120;2022-10-14T10:41:53;1.03;;;1.00;;
7971;SDS011;4031;49.758;6.120;2022-10-14T11:05:03;0.80;;;0.70;;
7971;SDS011;4031;49.758;6.120;2022-10-14T11:07:49;0.80;;;0.80;;
7971;SDS011;4031;49.758;6.120;2022-10-14T11:20:13;1.53;;;1.30;;
7971;SDS011;4031;49.758;6.120;2022-10-14T11:29:03;1.63;;;0.93;;
7971;SDS011;4031;49.758;6.120;2022-10-14T11:34:51;2.87;;;1.00;;
7971;SDS011;4031;49.758;6.120;2022-10-14T11:42:59;0.90;;;0.70;;
7971;SDS011;4031;49.758;6.120;2022-10-14T11:48:38;1.00;;;0.70;;
7971;SDS011;4031;49.758;6.120;2022-10-14T11:58:24;1.30;;;0.80;;
7971;SDS011;4031;49.758;6.120;2022-10-14T12:00:23;0.80;;;0.80;;
7971;SDS011;4031;49.758;6.120;2022-10-14T12:03:20;0.80;;;0.80;;
7971;SDS011;4031;49.758;6.120;2022-10-14T12:06:11;0.83;;;0.80;;
7971;SDS011;4031;49.758;6.120;2022-10-14T12:08:56;0.87;;;0.87;;
7971;SDS011;4031;49.758;6.120;2022-10-14T12:11:29;0.70;;;0.70;;
7971;SDS011;4031;49.758;6.120;2022-10-14T12:14:38;0.80;;;0.60;;
7971;SDS011;4031;49.758;6.120;2022-10-14T12:17:03;0.70;;;0.70;;
7971;SDS011;4031;49.758;6.120;2022-10-14T12:20:13;3.20;;;0.73;;
7971;SDS011;4031;49.758;6.120;2022-10-14T12:22:50;0.60;;;0.60;;
7971;SDS011;4031;49.758;6.120;2022-10-14T12:25:18;0.60;;;0.60;;
7971;SDS011;4031;49.758;6.120;2022-10-14T12:27:48;0.87;;;0.87;;
7971;SDS011;4031;49.758;6.120;2022-10-14T12:33:06;0.60;;;0.60;;
7971;SDS011;4031;49.758;6.120;2022-10-14T12:38:10;1.13;;;0.50;;
7971;SDS011;4031;49.758;6.120;2022-10-14T12:40:37;0.70;;;0.70;;
7971;SDS011;4031;49.758;6.120;2022-10-14T12:46:14;0.80;;;0.60;;
7971;SDS011;4031;49.758;6.120;2022-10-14T12:48:43;0.90;;;0.70;;
7971;SDS011;4031;49.758;6.120;2022-10-14T12:51:19;0.70;;;0.60;;
7971;SDS011;4031;49.758;6.120;2022-10-14T12:53:51;0.90;;;0.50;;
7971;SDS011;4031;49.758;6.120;2022-10-14T12:59:08;0.60;;;0.57;;
7971;SDS011;4031;49.758;6.120;2022-10-14T13:01:52;0.60;;;0.53;;
7971;SDS011;4031;49.758;6.120;2022-10-14T13:04:21;1.53;;;0.73;;
7971;SDS011;4031;49.758;6.120;2022-10-14T13:24:16;1.00;;;0.73;;
7971;SDS011;4031;49.758;6.120;2022-10-14T13:39:31;1.00;;;0.90;;
7971;SDS011;4031;49.758;6.120;2022-10-14T13:41:58;1.30;;;1.20;;
7971;SDS011;4031;49.758;6.120;2022-10-14T13:44:25;0.90;;;0.83;;
7971;SDS011;4031;49.758;6.120;2022-10-14T13:46:52;0.93;;;0.93;;
7971;SDS011;4031;49.758;6.120;2022-10-14T13:49:27;0.87;;;0.87;;
7971;SDS011;4031;49.758;6.120;2022-10-14T13:51:59;1.33;;;1.23;;
7971;SDS011;4031;49.758;6.120;2022-10-14T13:54:29;1.10;;;1.00;;
7971;SDS011;4031;49.758;6.120;2022-10-14T13:57:11;1.20;;;1.00;;
7971;SDS011;4031;49.758;6.120;2022-10-14T13:59:44;1.80;;;1.00;;
7971;SDS011;4031;49.758;6.120;2022-10-14T14:04:57;0.83;;;0.83;;
7971;SDS011;4031;49.758;6.120;2022-10-14T14:07:25;1.13;;;1.03;;
7971;SDS011;4031;49.758;6.120;2022-10-14T14:09:59;0.73;;;0.73;;
7971;SDS011;4031;49.758;6.120;2022-10-14T14:12:30;1.00;;;0.90;;
7971;SDS011;4031;49.758;6.120;2022-10-14T14:14:57;1.13;;;1.03;;
7971;SDS011;4031;49.758;6.120;2022-10-14T14:17:24;1.17;;;1.07;;
7971;SDS011;4031;49.758;6.120;2022-10-14T14:19:51;0.90;;;0.90;;
7971;SDS011;4031;49.758;6.120;2022-10-14T14:24:48;1.10;;;1.10;;
7971;SDS011;4031;49.758;6.120;2022-10-14T14:27:17;1.30;;;1.20;;
7971;SDS011;4031;49.758;6.120;2022-10-14T14:29:48;1.40;;;1.30;;
7971;SDS011;4031;49.758;6.120;2022-10-14T14:32:17;1.20;;;1.10;;
7971;SDS011;4031;49.758;6.120;2022-10-14T14:34:46;1.40;;;1.30;;
7971;SDS011;4031;49.758;6.120;2022-10-14T14:37:15;1.97;;;1.27;;
7971;SDS011;4031;49.758;6.120;2022-10-14T14:39:54;0.90;;;0.90;;
7971;SDS011;4031;49.758;6.120;2022-10-14T14:42:26;1.10;;;1.10;;
7971;SDS011;4031;49.758;6.120;2022-10-14T14:44:57;1.07;;;1.07;;
7971;SDS011;4031;49.758;6.120;2022-10-14T14:47:29;1.20;;;1.10;;
7971;SDS011;4031;49.758;6.120;2022-10-14T14:49:56;1.50;;;1.00;;
7971;SDS011;4031;49.758;6.120;2022-10-14T14:52:22;1.10;;;1.00;;
7971;SDS011;4031;49.758;6.120;2022-10-14T14:54:49;3.17;;;1.37;;
7971;SDS011;4031;49.758;6.120;2022-10-14T14:57:16;1.30;;;1.20;;
7971;SDS011;4031;49.758;6.120;2022-10-14T14:59:54;0.97;;;0.90;;
7971;SDS011;4031;49.758;6.120;2022-10-14T15:02:26;2.83;;;1.37;;
7971;SDS011;4031;49.758;6.120;2022-10-14T15:05:08;2.17;;;1.50;;
7971;SDS011;4031;49.758;6.120;2022-10-14T15:07:36;1.77;;;1.47;;
7971;SDS011;4031;49.758;6.120;2022-10-14T15:10:05;1.37;;;1.03;;
7971;SDS011;4031;49.758;6.120;2022-10-14T15:12:34;1.50;;;1.40;;
7971;SDS011;4031;49.758;6.120;2022-10-14T15:15:28;1.73;;;1.63;;
7971;SDS011;4031;49.758;6.120;2022-10-14T15:20:43;2.77;;;1.50;;
7971;SDS011;4031;49.758;6.120;2022-10-14T15:26:22;1.43;;;1.33;;
7971;SDS011;4031;49.758;6.120;2022-10-14T15:29:04;1.80;;;1.70;;
7971;SDS011;4031;49.758;6.120;2022-10-14T15:34:56;2.07;;;1.87;;
7971;SDS011;4031;49.758;6.120;2022-10-14T15:37:25;1.93;;;1.83;;
7971;SDS011;4031;49.758;6.120;2022-10-14T15:40:04;2.03;;;1.90;;
7971;SDS011;4031;49.758;6.120;2022-10-14T15:42:35;1.60;;;1.50;;
7971;SDS011;4031;49.758;6.120;2022-10-14T15:45:01;1.63;;;1.53;;
7971;SDS011;4031;49.758;6.120;2022-10-14T15:47:27;1.53;;;1.43;;
7971;SDS011;4031;49.758;6.120;2022-10-14T15:49:53;1.60;;;1.50;;
7971;SDS011;4031;49.758;6.120;2022-10-14T15:52:21;2.00;;;1.63;;
7971;SDS011;4031;49.758;6.120;2022-10-14T15:54:47;2.10;;;1.90;;
7971;SDS011;4031;49.758;6.120;2022-10-14T15:57:13;1.67;;;1.57;;
7971;SDS011;4031;49.758;6.120;2022-10-14T15:59:39;1.90;;;1.30;;
7971;SDS011;4031;49.758;6.120;2022-10-14T16:02:16;2.17;;;1.67;;
7971;SDS011;4031;49.758;6.120;2022-10-14T16:04:52;1.93;;;1.83;;
7971;SDS011;4031;49.758;6.120;2022-10-14T16:07:18;1.57;;;1.47;;
7971;SDS011;4031;49.758;6.120;2022-10-14T16:09:43;1.80;;;1.60;;
7971;SDS011;4031;49.758;6.120;2022-10-14T16:12:11;1.70;;;1.60;;
7971;SDS011;4031;49.758;6.120;2022-10-14T16:14:37;1.83;;;1.60;;
7971;SDS011;4031;49.758;6.120;2022-10-14T16:17:03;1.30;;;1.20;;
7971;SDS011;4031;49.758;6.120;2022-10-14T16:19:29;4.83;;;1.93;;
7971;SDS011;4031;49.758;6.120;2022-10-14T16:21:55;1.90;;;1.80;;
7971;SDS011;4031;49.758;6.120;2022-10-14T16:24:21;1.90;;;1.80;;
7971;SDS011;4031;49.758;6.120;2022-10-14T16:26:50;2.83;;;2.00;;
7971;SDS011;4031;49.758;6.120;2022-10-14T16:29:17;4.03;;;1.83;;
7971;SDS011;4031;49.758;6.120;2022-10-14T16:31:47;2.20;;;2.00;;
7971;SDS011;4031;49.758;6.120;2022-10-14T16:34:18;5.13;;;1.97;;
7971;SDS011;4031;49.758;6.120;2022-10-14T16:36:46;1.70;;;1.60;;
7971;SDS011;4031;49.758;6.120;2022-10-14T16:39:13;2.33;;;2.13;;
7971;SDS011;4031;49.758;6.120;2022-10-14T16:41:40;1.80;;;1.70;;
7971;SDS011;4031;49.758;6.120;2022-10-14T16:44:07;1.90;;;1.80;;
7971;SDS011;4031;49.758;6.120;2022-10-14T16:46:48;1.83;;;1.73;;
7971;SDS011;4031;49.758;6.120;2022-10-14T16:49:36;1.80;;;1.70;;
7971;SDS011;4031;49.758;6.120;2022-10-14T16:52:03;2.50;;;1.80;;
7971;SDS011;4031;49.758;6.120;2022-10-14T16:54:30;1.90;;;1.80;;
7971;SDS011;4031;49.758;6.120;2022-10-14T16:56:56;3.10;;;2.30;;
7971;SDS011;4031;49.758;6.120;2022-10-14T16:59:22;2.60;;;2.17;;
7971;SDS011;4031;49.758;6.120;2022-10-14T17:01:48;2.27;;;2.00;;
7971;SDS011;4031;49.758;6.120;2022-10-14T17:04:15;2.53;;;1.50;;
7971;SDS011;4031;49.758;6.120;2022-10-14T17:06:45;1.43;;;1.20;;
7971;SDS011;4031;49.758;6.120;2022-10-14T17:09:11;1.70;;;1.40;;
7971;SDS011;4031;49.758;6.120;2022-10-14T17:11:38;3.63;;;1.70;;
7971;SDS011;4031;49.758;6.120;2022-10-14T17:14:05;2.20;;;2.00;;
7971;SDS011;4031;49.758;6.120;2022-10-14T17:16:31;3.70;;;1.87;;
7971;SDS011;4031;49.758;6.120;2022-10-14T17:18:57;2.20;;;2.00;;
7971;SDS011;4031;49.758;6.120;2022-10-14T17:21:23;1.93;;;1.73;;
7971;SDS011;4031;49.758;6.120;2022-10-14T17:23:53;4.10;;;1.60;;
7971;SDS011;4031;49.758;6.120;2022-10-14T17:26:26;2.97;;;2.40;;
7971;SDS011;4031;49.758;6.120;2022-10-14T17:28:56;2.40;;;1.70;;
7971;SDS011;4031;49.758;6.120;2022-10-14T17:31:23;2.10;;;1.90;;
7971;SDS011;4031;49.758;6.120;2022-10-14T17:33:49;2.20;;;2.00;;
7971;SDS011;4031;49.758;6.120;2022-10-14T17:36:23;2.17;;;1.50;;
7971;SDS011;4031;49.758;6.120;2022-10-14T17:38:55;1.77;;;1.67;;
7971;SDS011;4031;49.758;6.120;2022-10-14T17:41:22;2.07;;;1.87;;
7971;SDS011;4031;49.758;6.120;2022-10-14T17:43:51;3.60;;;1.50;;
7971;SDS011;4031;49.758;6.120;2022-10-14T17:46:19;1.40;;;1.30;;
7971;SDS011;4031;49.758;6.120;2022-10-14T17:48:51;1.77;;;1.40;;
7971;SDS011;4031;49.758;6.120;2022-10-14T17:51:20;1.60;;;1.50;;
7971;SDS011;4031;49.758;6.120;2022-10-14T17:53:48;1.50;;;1.33;;
7971;SDS011;4031;49.758;6.120;2022-10-14T17:56:22;1.40;;;1.30;;
7971;SDS011;4031;49.758;6.120;2022-10-14T17:58:56;1.70;;;1.60;;
7971;SDS011;4031;49.758;6.120;2022-10-14T18:01:26;1.73;;;1.53;;
7971;SDS011;4031;49.758;6.120;2022-10-14T18:03:54;1.57;;;1.47;;
7971;SDS011;4031;49.758;6.120;2022-10-14T18:06:23;1.40;;;1.30;;
7971;SDS011;4031;49.758;6.120;2022-10-14T18:08:52;2.40;;;1.50;;
7971;SDS011;4031;49.758;6.120;2022-10-14T18:11:22;1.63;;;1.27;;